createdAt,value
2023-04-16T00:01:06.345Z,102359.81
2023-04-16T00:03:33.305Z,102373.13
2023-04-16T00:06:00.816Z,102371.34
2023-04-16T00:08:27.523Z,102364.25
2023-04-16T00:10:54.299Z,102367.78
2023-04-16T00:13:21.448Z,102362.47
2023-04-16T00:15:48.632Z,102367.78
2023-04-16T00:18:15.539Z,102376.66
2023-04-16T00:20:42.229Z,102378.44
2023-04-16T00:23:08.866Z,102374.00
2023-04-16T00:25:35.577Z,102369.56
2023-04-16T00:28:02.133Z,102370.47
2023-04-16T00:30:28.930Z,102367.81
2023-04-16T00:32:55.528Z,102366.03
2023-04-16T00:35:22.090Z,102379.31
2023-04-16T00:37:48.825Z,102371.34
2023-04-16T00:40:15.582Z,102380.22
2023-04-16T00:42:42.136Z,102366.03
2023-04-16T00:45:09.712Z,102369.56
2023-04-16T00:47:36.552Z,102370.47
2023-04-16T00:50:04.619Z,102374.00
2023-04-16T00:52:33.070Z,102375.78
2023-04-16T00:54:59.983Z,102377.56
2023-04-16T00:57:26.999Z,102371.34
2023-04-16T00:59:54.306Z,102368.69
2023-04-16T01:02:21.062Z,102373.13
2023-04-16T01:04:48.044Z,102368.69
2023-04-16T01:07:14.555Z,102364.31
2023-04-16T01:09:41.389Z,102374.88
2023-04-16T01:12:08.211Z,102373.13
2023-04-16T01:14:36.379Z,102380.22
2023-04-16T01:17:04.160Z,102372.25
2023-04-16T01:19:36.287Z,102366.97
2023-04-16T01:22:04.229Z,102361.66
2023-04-16T01:24:31.252Z,102372.25
2023-04-16T01:27:01.364Z,102374.00
2023-04-16T01:29:27.997Z,102367.81
2023-04-16T01:31:54.609Z,102374.94
2023-04-16T01:34:21.463Z,102372.28
2023-04-16T01:36:48.046Z,102381.09
2023-04-16T01:39:16.347Z,102370.50
2023-04-16T01:41:45.170Z,102379.38
2023-04-16T01:44:11.688Z,102383.78
2023-04-16T01:46:38.761Z,102389.13
2023-04-16T01:49:07.469Z,102383.81
2023-04-16T01:51:34.316Z,102381.16
2023-04-16T01:54:01.288Z,102392.66
2023-04-16T01:56:27.971Z,102390.00
2023-04-16T01:58:56.254Z,102383.81
2023-04-16T02:01:22.936Z,102387.34
2023-04-16T02:03:50.055Z,102392.66
2023-04-16T02:06:16.886Z,102385.56
2023-04-16T02:08:43.499Z,102389.13
2023-04-16T02:11:10.374Z,102388.22
2023-04-16T02:13:37.349Z,102393.53
2023-04-16T02:16:04.314Z,102385.56
2023-04-16T02:18:30.848Z,102385.56
2023-04-16T02:20:59.884Z,102385.56
2023-04-16T02:23:26.807Z,102374.94
2023-04-16T02:25:53.683Z,102379.38
2023-04-16T02:28:20.267Z,102376.72
2023-04-16T02:30:46.806Z,102372.28
2023-04-16T02:33:13.468Z,102367.81
2023-04-16T02:35:41.070Z,102388.19
2023-04-16T02:38:08.354Z,102384.63
2023-04-16T02:40:35.427Z,102375.78
2023-04-16T02:43:02.114Z,102377.56
2023-04-16T02:45:28.762Z,102374.91
2023-04-16T02:47:55.367Z,102382.84
2023-04-16T02:50:22.080Z,102380.22
2023-04-16T02:52:48.690Z,102381.97
2023-04-16T02:55:15.336Z,102381.09
2023-04-16T02:57:42.762Z,102384.63
2023-04-16T03:00:10.136Z,102388.19
2023-04-16T03:02:36.901Z,102385.53
2023-04-16T03:05:04.180Z,102385.53
2023-04-16T03:07:31.037Z,102392.59
2023-04-16T03:09:57.778Z,102382.88
2023-04-16T03:12:24.407Z,102389.94
2023-04-16T03:14:52.680Z,102390.84
2023-04-16T03:17:19.384Z,102395.25
2023-04-16T03:19:46.169Z,102394.38
2023-04-16T03:22:12.848Z,102405.88
2023-04-16T03:24:39.570Z,102397.03
2023-04-16T03:27:06.382Z,102408.56
2023-04-16T03:29:32.960Z,102406.78
2023-04-16T03:31:59.538Z,102409.44
2023-04-16T03:34:26.133Z,102409.44
2023-04-16T03:36:52.710Z,102409.44
2023-04-16T03:39:19.383Z,102410.31
2023-04-16T03:41:46.350Z,102402.34
2023-04-16T03:44:12.969Z,102407.66
2023-04-16T03:46:39.639Z,102412.13
2023-04-16T03:49:06.266Z,102409.47
2023-04-16T03:51:32.870Z,102410.38
2023-04-16T03:53:59.469Z,102415.66
2023-04-16T03:56:26.165Z,102413.91
2023-04-16T03:58:52.689Z,102416.56
2023-04-16T04:01:19.199Z,102413.03
2023-04-16T04:03:46.006Z,102411.25
2023-04-16T04:06:12.816Z,102419.22
2023-04-16T04:08:39.332Z,102410.38
2023-04-16T04:11:06.012Z,102414.81
2023-04-16T04:13:32.555Z,102418.34
2023-04-16T04:15:59.151Z,102412.16
2023-04-16T04:18:25.724Z,102410.38
2023-04-16T04:20:52.336Z,102416.56
2023-04-16T04:23:19.075Z,102413.91
2023-04-16T04:25:45.998Z,102422.78
2023-04-16T04:28:12.611Z,102429.84
2023-04-16T04:30:39.320Z,102427.19
2023-04-16T04:33:06.321Z,102429.84
2023-04-16T04:35:33.346Z,102421.00
2023-04-16T04:38:00.208Z,102424.53
2023-04-16T04:40:26.773Z,102439.59
2023-04-16T04:42:53.314Z,102443.13
2023-04-16T04:45:19.859Z,102443.13
2023-04-16T04:47:48.768Z,102444.03
2023-04-16T04:50:15.594Z,102452.88
2023-04-16T04:52:42.173Z,102452.00
2023-04-16T04:55:08.988Z,102445.78
2023-04-16T04:57:35.843Z,102446.69
2023-04-16T05:00:04.121Z,102453.78
2023-04-16T05:02:30.785Z,102452.88
2023-04-16T05:04:58.874Z,102451.13
2023-04-16T05:07:25.502Z,102454.66
2023-04-16T05:09:52.064Z,102444.91
2023-04-16T05:12:18.635Z,102449.34
2023-04-16T05:14:45.394Z,102447.56
2023-04-16T05:17:12.161Z,102458.19
2023-04-16T05:19:39.037Z,102455.53
2023-04-16T05:22:05.732Z,102453.78
2023-04-16T05:24:32.654Z,102458.19
2023-04-16T05:26:59.180Z,102458.19
2023-04-16T05:29:25.855Z,102455.53
2023-04-16T05:31:52.924Z,102451.09
2023-04-16T05:34:19.526Z,102452.88
2023-04-16T05:36:46.299Z,102460.84
2023-04-16T05:39:12.905Z,102461.75
2023-04-16T05:41:39.421Z,102458.19
2023-04-16T05:44:05.966Z,102465.28
2023-04-16T05:46:32.557Z,102462.63
2023-04-16T05:48:59.160Z,102476.78
2023-04-16T05:51:27.531Z,102475.91
2023-04-16T05:53:54.054Z,102476.78
2023-04-16T05:56:21.803Z,102475.03
2023-04-16T05:58:48.321Z,102483.00
2023-04-16T06:01:14.889Z,102473.25
2023-04-16T06:03:41.639Z,102482.06
2023-04-16T06:06:09.166Z,102481.22
2023-04-16T06:08:35.831Z,102482.09
2023-04-16T06:11:03.597Z,102490.03
2023-04-16T06:13:30.256Z,102487.38
2023-04-16T06:15:56.847Z,102496.25
2023-04-16T06:18:23.621Z,102495.34
2023-04-16T06:20:50.490Z,102492.69
2023-04-16T06:23:17.168Z,102498.91
2023-04-16T06:25:43.676Z,102494.47
2023-04-16T06:28:10.217Z,102502.44
2023-04-16T06:30:36.741Z,102500.69
2023-04-16T06:33:03.419Z,102512.19
2023-04-16T06:35:29.998Z,102506.88
2023-04-16T06:37:56.904Z,102505.09
2023-04-16T06:40:23.474Z,102510.41
2023-04-16T06:42:50.306Z,102506.84
2023-04-16T06:45:16.941Z,102513.03
2023-04-16T06:47:43.603Z,102517.47
2023-04-16T06:50:10.469Z,102513.03
2023-04-16T06:52:37.075Z,102511.28
2023-04-16T06:55:03.912Z,102513.94
2023-04-16T06:57:30.565Z,102524.56
2023-04-16T06:59:57.196Z,102516.59
2023-04-16T07:02:24.324Z,102529.88
2023-04-16T07:04:52.290Z,102525.44
2023-04-16T07:07:18.978Z,102529.88
2023-04-16T07:09:45.564Z,102529.88
2023-04-16T07:12:12.355Z,102535.16
2023-04-16T07:14:39.155Z,102536.94
2023-04-16T07:17:05.887Z,102540.47
2023-04-16T07:19:32.774Z,102538.69
2023-04-16T07:22:03.555Z,102545.78
2023-04-16T07:24:30.482Z,102546.69
2023-04-16T07:26:57.208Z,102539.59
2023-04-16T07:29:23.812Z,102554.66
2023-04-16T07:31:51.407Z,102544.00
2023-04-16T07:34:19.140Z,102551.09
2023-04-16T07:36:45.978Z,102548.44
2023-04-16T07:39:13.145Z,102555.50
2023-04-16T07:41:40.985Z,102557.28
2023-04-16T07:44:08.082Z,102551.97
2023-04-16T07:46:45.630Z,102565.25
2023-04-16T07:49:13.419Z,102560.81
2023-04-16T07:51:40.036Z,102555.50
2023-04-16T07:54:06.707Z,102568.78
2023-04-16T07:56:33.369Z,102574.13
2023-04-16T07:59:07.907Z,102568.78
2023-04-16T08:01:41.590Z,102571.44
2023-04-16T08:04:08.357Z,102576.72
2023-04-16T08:06:35.050Z,102582.06
2023-04-16T08:09:01.545Z,102583.81
2023-04-16T08:11:28.831Z,102582.06
2023-04-16T08:13:55.856Z,102583.81
2023-04-16T08:16:22.707Z,102590.03
2023-04-16T08:18:49.407Z,102591.81
2023-04-16T08:21:15.998Z,102593.56
2023-04-16T08:23:42.509Z,102595.34
2023-04-16T08:26:09.033Z,102600.63
2023-04-16T08:28:37.597Z,102600.63
2023-04-16T08:31:04.302Z,102612.16
2023-04-16T08:33:30.990Z,102610.38
2023-04-16T08:35:57.578Z,102604.13
2023-04-16T08:38:24.184Z,102610.38
2023-04-16T08:40:51.252Z,102601.50
2023-04-16T08:43:19.335Z,102609.50
2023-04-16T08:45:47.545Z,102620.13
2023-04-16T08:48:15.570Z,102616.59
2023-04-16T08:50:44.038Z,102614.81
2023-04-16T08:53:18.886Z,102615.66
2023-04-16T08:55:50.618Z,102610.34
2023-04-16T08:58:22.545Z,102619.19
2023-04-16T09:00:49.819Z,102619.19
2023-04-16T09:03:16.489Z,102622.69
2023-04-16T09:05:44.059Z,102618.25
2023-04-16T09:08:10.715Z,102620.88
2023-04-16T09:10:37.331Z,102619.09
2023-04-16T09:13:04.023Z,102627.06
2023-04-16T09:15:30.805Z,102627.91
2023-04-16T09:17:57.852Z,102630.59
2023-04-16T09:20:24.731Z,102629.69
2023-04-16T09:22:51.358Z,102627.91
2023-04-16T09:25:21.352Z,102639.44
2023-04-16T09:27:50.942Z,102633.22
2023-04-16T09:30:26.170Z,102637.66
2023-04-16T09:33:12.149Z,102641.22
2023-04-16T09:36:05.954Z,102640.28
2023-04-16T09:38:52.647Z,102646.47
2023-04-16T09:41:20.564Z,102648.25
2023-04-16T09:43:58.324Z,102654.47
2023-04-16T09:46:34.974Z,102653.56
2023-04-16T09:49:15.473Z,102652.69
2023-04-16T09:51:43.645Z,102658.00
2023-04-16T09:54:11.225Z,102657.97
2023-04-16T09:56:43.678Z,102668.66
2023-04-16T09:59:21.119Z,102669.56
2023-04-16T10:01:53.332Z,102672.16
2023-04-16T10:04:51.297Z,102666.88
2023-04-16T10:07:19.515Z,102670.41
2023-04-16T10:09:50.788Z,102667.75
2023-04-16T10:12:17.309Z,102663.31
2023-04-16T10:14:43.936Z,102672.16
2023-04-16T10:17:10.994Z,102667.72
2023-04-16T10:19:38.410Z,102668.56
2023-04-16T10:22:05.523Z,102667.66
2023-04-16T10:24:34.542Z,102668.56
2023-04-16T10:27:01.778Z,102680.09
2023-04-16T10:29:31.230Z,102674.75
2023-04-16T10:31:59.428Z,102676.53
2023-04-16T10:34:27.622Z,102668.53
2023-04-16T10:36:55.294Z,102675.66
2023-04-16T10:39:24.102Z,102672.03
2023-04-16T10:41:52.592Z,102674.69
2023-04-16T10:44:19.696Z,102677.38
2023-04-16T10:46:49.797Z,102672.97
2023-04-16T10:49:23.310Z,102674.72
2023-04-16T10:52:02.243Z,102680.03
2023-04-16T10:54:31.056Z,102676.47
2023-04-16T10:57:01.648Z,102680.03
2023-04-16T10:59:35.282Z,102672.94
2023-04-16T11:02:08.573Z,102684.47
2023-04-16T11:04:38.069Z,102681.78
2023-04-16T11:07:07.482Z,102678.19
2023-04-16T11:09:59.997Z,102679.97
2023-04-16T11:12:29.682Z,102677.28
2023-04-16T11:15:10.009Z,102685.25
2023-04-16T11:17:40.223Z,102678.16
2023-04-16T11:20:19.080Z,102678.13
2023-04-16T11:22:50.650Z,102678.09
2023-04-16T11:25:31.860Z,102680.78
2023-04-16T11:27:59.261Z,102672.78
2023-04-16T11:30:31.572Z,102681.63
2023-04-16T11:32:58.230Z,102678.09
2023-04-16T11:35:25.235Z,102684.31
2023-04-16T11:37:56.865Z,102680.75
2023-04-16T11:40:24.190Z,102676.31
2023-04-16T11:42:50.828Z,102686.09
2023-04-16T11:45:19.381Z,102688.69
2023-04-16T11:47:51.734Z,102680.69
2023-04-16T11:50:28.766Z,102686.91
2023-04-16T11:52:58.949Z,102680.69
2023-04-16T11:55:25.682Z,102686.88
2023-04-16T11:57:52.765Z,102694.00
2023-04-16T12:00:23.751Z,102690.38
2023-04-16T12:02:53.931Z,102699.25
2023-04-16T12:05:35.300Z,102694.81
2023-04-16T12:08:04.618Z,102693.03
2023-04-16T12:10:37.354Z,102691.25
2023-04-16T12:13:14.484Z,102697.47
2023-04-16T12:15:55.904Z,102692.06
2023-04-16T12:18:26.078Z,102696.47
2023-04-16T12:20:52.845Z,102701.72
2023-04-16T12:23:27.795Z,102707.09
2023-04-16T12:25:57.913Z,102709.72
2023-04-16T12:28:29.948Z,102709.72
2023-04-16T12:30:56.996Z,102708.84
2023-04-16T12:33:23.765Z,102707.97
2023-04-16T12:35:51.080Z,102712.41
2023-04-16T12:38:17.999Z,102707.97
2023-04-16T12:40:44.967Z,102707.97
2023-04-16T12:43:11.545Z,102710.63
2023-04-16T12:45:40.038Z,102708.84
2023-04-16T12:48:07.137Z,102712.44
2023-04-16T12:50:33.738Z,102710.72
2023-04-16T12:53:00.345Z,102708.03
2023-04-16T12:55:26.909Z,102710.69
2023-04-16T12:57:54.612Z,102710.63
2023-04-16T13:00:21.988Z,102715.09
2023-04-16T13:02:48.770Z,102702.63
2023-04-16T13:05:16.623Z,102710.59
2023-04-16T13:07:43.323Z,102715.03
2023-04-16T13:10:13.623Z,102714.13
2023-04-16T13:12:40.335Z,102710.56
2023-04-16T13:15:07.480Z,102704.34
2023-04-16T13:17:34.073Z,102702.56
2023-04-16T13:20:00.609Z,102702.56
2023-04-16T13:22:27.190Z,102706.09
2023-04-16T13:24:53.899Z,102702.56
2023-04-16T13:27:21.081Z,102699.81
2023-04-16T13:29:47.673Z,102702.47
2023-04-16T13:32:14.810Z,102702.47
2023-04-16T13:34:41.525Z,102706.00
2023-04-16T13:37:08.130Z,102694.47
2023-04-16T13:39:34.724Z,102703.34
2023-04-16T13:42:01.822Z,102703.38
2023-04-16T13:44:28.380Z,102706.00
2023-04-16T13:46:56.130Z,102710.44
2023-04-16T13:49:23.407Z,102706.88
2023-04-16T13:51:50.033Z,102705.13
2023-04-16T13:54:16.878Z,102706.00
2023-04-16T13:56:43.995Z,102704.16
2023-04-16T13:59:10.907Z,102705.94
2023-04-16T14:01:37.817Z,102700.66
2023-04-16T14:04:06.822Z,102703.28
2023-04-16T14:06:34.720Z,102693.47
2023-04-16T14:09:01.886Z,102705.00
2023-04-16T14:11:28.719Z,102706.72
2023-04-16T14:13:55.517Z,102704.91
2023-04-16T14:16:22.296Z,102694.16
2023-04-16T14:18:48.872Z,102693.22
2023-04-16T14:21:15.583Z,102696.69
2023-04-16T14:23:42.155Z,102695.78
2023-04-16T14:26:08.931Z,102693.00
2023-04-16T14:28:35.943Z,102700.06
2023-04-16T14:31:02.557Z,102691.06
2023-04-16T14:33:29.266Z,102687.44
2023-04-16T14:35:56.061Z,102693.69
2023-04-16T14:38:22.701Z,102696.34
2023-04-16T14:40:49.412Z,102693.75
2023-04-16T14:43:16.281Z,102700.91
2023-04-16T14:45:42.928Z,102703.63
2023-04-16T14:48:09.549Z,102701.97
2023-04-16T14:50:37.918Z,102704.66
2023-04-16T14:53:05.315Z,102691.41
2023-04-16T14:55:32.303Z,102689.56
2023-04-16T14:57:59.725Z,102696.63
2023-04-16T15:00:27.273Z,102681.47
2023-04-16T15:02:54.872Z,102690.31
2023-04-16T15:05:22.026Z,102687.59
2023-04-16T15:07:48.714Z,102689.31
2023-04-16T15:10:15.628Z,102686.63
2023-04-16T15:12:42.231Z,102691.03
2023-04-16T15:15:09.455Z,102681.16
2023-04-16T15:17:36.285Z,102683.75
2023-04-16T15:20:05.921Z,102685.44
2023-04-16T15:22:32.460Z,102689.09
2023-04-16T15:24:59.019Z,102682.84
2023-04-16T15:27:25.890Z,102691.81
2023-04-16T15:29:53.882Z,102689.16
2023-04-16T15:32:20.609Z,102693.59
2023-04-16T15:34:47.209Z,102693.63
2023-04-16T15:37:14.032Z,102683.81
2023-04-16T15:39:40.706Z,102687.38
2023-04-16T15:42:08.114Z,102682.03
2023-04-16T15:44:34.793Z,102697.19
2023-04-16T15:47:01.371Z,102685.72
2023-04-16T15:49:28.078Z,102690.19
2023-04-16T15:51:55.932Z,102692.88
2023-04-16T15:54:22.505Z,102691.16
2023-04-16T15:56:49.138Z,102685.75
2023-04-16T15:59:15.991Z,102695.56
2023-04-16T16:01:42.643Z,102684.88
2023-04-16T16:04:09.733Z,102693.75
2023-04-16T16:06:38.122Z,102694.72
2023-04-16T16:09:04.980Z,102694.75
2023-04-16T16:11:32.560Z,102692.06
2023-04-16T16:14:02.387Z,102689.38
2023-04-16T16:16:29.185Z,102682.31
2023-04-16T16:18:55.938Z,102693.91
2023-04-16T16:21:22.716Z,102688.66
2023-04-16T16:23:49.352Z,102692.28
2023-04-16T16:26:16.151Z,102695.00
2023-04-16T16:28:45.940Z,102690.59
2023-04-16T16:31:12.565Z,102695.03
2023-04-16T16:33:41.522Z,102696.88
2023-04-16T16:36:11.955Z,102690.69
2023-04-16T16:38:40.837Z,102696.97
2023-04-16T16:41:07.912Z,102693.44
2023-04-16T16:43:37.924Z,102691.66
2023-04-16T16:46:07.287Z,102689.94
2023-04-16T16:48:33.993Z,102689.91
2023-04-16T16:51:00.971Z,102696.16
2023-04-16T16:53:27.683Z,102697.91
2023-04-16T16:55:54.768Z,102698.81
2023-04-16T16:58:21.392Z,102694.44
2023-04-16T17:00:48.055Z,102698.03
2023-04-16T17:03:14.841Z,102700.75
2023-04-16T17:05:46.365Z,102703.44
2023-04-16T17:08:16.531Z,102704.44
2023-04-16T17:10:43.797Z,102716.84
2023-04-16T17:13:10.635Z,102710.66
2023-04-16T17:15:37.303Z,102706.25
2023-04-16T17:18:04.169Z,102708.06
2023-04-16T17:20:32.484Z,102715.19
2023-04-16T17:22:59.481Z,102718.81
2023-04-16T17:25:26.311Z,102722.38
2023-04-16T17:27:53.024Z,102725.09
2023-04-16T17:30:19.768Z,102725.13
2023-04-16T17:32:46.514Z,102732.28
2023-04-16T17:35:13.984Z,102725.19
2023-04-16T17:37:40.731Z,102737.66
2023-04-16T17:40:07.967Z,102743.84
2023-04-16T17:42:35.352Z,102740.34
2023-04-16T17:45:02.783Z,102743.91
2023-04-16T17:47:34.037Z,102741.28
2023-04-16T17:50:00.911Z,102750.16
2023-04-16T17:52:27.545Z,102754.63
2023-04-16T17:55:00.219Z,102759.06
2023-04-16T17:57:27.827Z,102749.31
2023-04-16T17:59:54.352Z,102756.41
2023-04-16T18:02:21.205Z,102755.56
2023-04-16T18:04:48.594Z,102763.56
2023-04-16T18:07:15.358Z,102756.47
2023-04-16T18:09:42.053Z,102767.09
2023-04-16T18:12:08.709Z,102760.94
2023-04-16T18:14:35.815Z,102768.03
2023-04-16T18:17:04.328Z,102771.59
2023-04-16T18:19:32.995Z,102770.75
2023-04-16T18:21:59.551Z,102768.09
2023-04-16T18:24:26.186Z,102769.84
2023-04-16T18:26:53.591Z,102769.84
2023-04-16T18:29:24.828Z,102770.75
2023-04-16T18:31:52.002Z,102779.63
2023-04-16T18:34:18.660Z,102777.84
2023-04-16T18:36:45.913Z,102773.44
2023-04-16T18:39:12.515Z,102793.81
2023-04-16T18:41:40.655Z,102788.53
2023-04-16T18:44:07.262Z,102788.53
2023-04-16T18:46:33.854Z,102797.41
2023-04-16T18:49:00.590Z,102800.94
2023-04-16T18:51:27.233Z,102799.19
2023-04-16T18:53:53.818Z,102795.66
2023-04-16T18:56:20.719Z,102799.22
2023-04-16T18:58:47.813Z,102800.09
2023-04-16T19:01:15.525Z,102808.09
2023-04-16T19:03:42.254Z,102809.84
2023-04-16T19:06:09.237Z,102799.25
2023-04-16T19:08:35.865Z,102804.53
2023-04-16T19:11:02.439Z,102803.66
2023-04-16T19:13:30.297Z,102812.50
2023-04-16T19:16:01.377Z,102807.19
2023-04-16T19:18:28.143Z,102811.66
2023-04-16T19:21:01.273Z,102822.28
2023-04-16T19:23:28.772Z,102812.53
2023-04-16T19:25:56.784Z,102814.31
2023-04-16T19:28:24.495Z,102805.47
2023-04-16T19:30:52.057Z,102811.69
2023-04-16T19:33:19.142Z,102810.78
2023-04-16T19:35:46.966Z,102815.22
2023-04-16T19:38:13.644Z,102809.00
2023-04-16T19:40:40.992Z,102803.69
2023-04-16T19:43:07.654Z,102803.69
2023-04-16T19:45:34.427Z,102814.34
2023-04-16T19:48:01.088Z,102815.22
2023-04-16T19:50:27.789Z,102813.44
2023-04-16T19:52:54.384Z,102807.25
2023-04-16T19:55:21.208Z,102822.31
2023-04-16T19:57:48.241Z,102819.66
2023-04-16T20:00:15.177Z,102819.66
2023-04-16T20:02:41.960Z,102822.31
2023-04-16T20:05:09.154Z,102816.06
2023-04-16T20:07:35.915Z,102823.19
2023-04-16T20:10:02.964Z,102824.94
2023-04-16T20:12:29.675Z,102822.31
2023-04-16T20:14:56.307Z,102827.63
2023-04-16T20:17:23.013Z,102826.69
2023-04-16T20:19:51.228Z,102825.84
2023-04-16T20:22:18.789Z,102831.19
2023-04-16T20:24:47.767Z,102823.19
2023-04-16T20:27:19.364Z,102821.41
2023-04-16T20:29:46.207Z,102831.16
2023-04-16T20:32:12.780Z,102820.50
2023-04-16T20:34:39.955Z,102817.84
2023-04-16T20:37:07.556Z,102817.88
2023-04-16T20:39:34.579Z,102823.19
2023-04-16T20:42:04.119Z,102822.31
2023-04-16T20:44:40.399Z,102822.28
2023-04-16T20:47:11.617Z,102824.06
2023-04-16T20:49:38.442Z,102819.63
2023-04-16T20:52:05.574Z,102825.84
2023-04-16T20:54:32.123Z,102816.09
2023-04-16T20:56:58.905Z,102808.97
2023-04-16T20:59:25.966Z,102813.44
2023-04-16T21:01:52.729Z,102806.31
2023-04-16T21:04:19.750Z,102809.00
2023-04-16T21:06:46.956Z,102805.44
2023-04-16T21:09:13.714Z,102803.66
2023-04-16T21:11:40.367Z,102814.31
2023-04-16T21:14:06.977Z,102815.19
2023-04-16T21:16:36.056Z,102807.19
2023-04-16T21:19:03.106Z,102804.53
2023-04-16T21:21:29.749Z,102808.97
2023-04-16T21:23:56.300Z,102809.84
2023-04-16T21:26:22.912Z,102803.66
2023-04-16T21:28:49.541Z,102806.31
2023-04-16T21:31:16.366Z,102802.78
2023-04-16T21:33:43.087Z,102805.41
2023-04-16T21:36:10.456Z,102793.91
2023-04-16T21:38:37.027Z,102802.78
2023-04-16T21:41:03.718Z,102808.06
2023-04-16T21:43:31.910Z,102805.41
2023-04-16T21:45:59.118Z,102799.22
2023-04-16T21:48:25.910Z,102807.22
2023-04-16T21:50:56.063Z,102806.31
2023-04-16T21:53:22.655Z,102810.75
2023-04-16T21:55:49.217Z,102810.75
2023-04-16T21:58:15.781Z,102808.97
2023-04-16T22:00:42.459Z,102810.72
2023-04-16T22:03:12.380Z,102810.72
2023-04-16T22:05:39.149Z,102803.63
2023-04-16T22:08:23.228Z,102814.28
2023-04-16T22:10:50.410Z,102814.28
2023-04-16T22:13:18.286Z,102813.38
2023-04-16T22:15:44.969Z,102806.28
2023-04-16T22:18:11.576Z,102811.63
2023-04-16T22:20:39.241Z,102809.84
2023-04-16T22:23:06.733Z,102802.75
2023-04-16T22:25:33.506Z,102801.00
2023-04-16T22:28:01.564Z,102811.63
2023-04-16T22:30:28.382Z,102797.44
2023-04-16T22:32:55.267Z,102808.06
2023-04-16T22:35:21.946Z,102802.75
2023-04-16T22:37:48.551Z,102804.50
2023-04-16T22:40:15.743Z,102808.03
2023-04-16T22:42:42.327Z,102816.91
2023-04-16T22:45:09.504Z,102809.81
2023-04-16T22:47:36.200Z,102811.56
2023-04-16T22:50:03.159Z,102802.72
2023-04-16T22:52:29.778Z,102805.38
2023-04-16T22:54:56.329Z,102808.03
2023-04-16T22:57:25.509Z,102800.06
2023-04-16T22:59:53.044Z,102801.84
2023-04-16T23:02:20.692Z,102800.94
2023-04-16T23:04:47.790Z,102808.91
2023-04-16T23:07:15.086Z,102809.81
2023-04-16T23:09:42.359Z,102802.69
2023-04-16T23:12:09.069Z,102806.25
2023-04-16T23:14:36.747Z,102814.22
2023-04-16T23:17:03.363Z,102811.56
2023-04-16T23:19:31.168Z,102809.81
2023-04-16T23:21:57.941Z,102808.03
2023-04-16T23:24:24.510Z,102812.44
2023-04-16T23:26:52.390Z,102807.16
2023-04-16T23:29:20.628Z,102818.66
2023-04-16T23:31:47.619Z,102817.75
2023-04-16T23:34:14.606Z,102823.97
2023-04-16T23:36:41.283Z,102818.63
2023-04-16T23:39:07.821Z,102814.19
2023-04-16T23:41:34.697Z,102815.09
2023-04-16T23:44:01.380Z,102815.94
2023-04-16T23:46:28.000Z,102816.84
2023-04-16T23:48:57.300Z,102821.28
2023-04-16T23:51:23.835Z,102819.50
2023-04-16T23:53:50.498Z,102822.16
2023-04-16T23:56:17.237Z,102822.16
2023-04-16T23:58:43.861Z,102823.91
